Emerald Leader — C6WP4 — position and weather

sailwx.info

Track history (hours):
 
Tides and Currents Weather Stations Pressure Air Temp Water Temp Dewpoint Dewpoint Depression Visibility Wind Speed Wind Dir Waves Ship Positions

Emerald Leader

Last reported at 2014-Sep-20 04:33 UTC. Time now 2014-Sep-21 18:09 UTC.
Position N 42°44' E 009°58'.

Length 176 m; draft 8.5 m.

Type: Cargo ship. MMSI: 308688000.

Date/timePositionNaut miles runAvg speedWind from/ knotsBaromVisibWave heightAir tempDewpointWater temp
2014-Sep-20 04:33N 42°44' E 009°58'1615.7
2014-Sep-20 03:33N 42°60' E 010°02'1616.2
2014-Sep-20 02:33N 43°15' E 010°08'1615.6
2014-Sep-20 01:34N 43°31' E 010°13'6 5.6
2014-Sep-20 00:33N 43°35' E 010°18'0 0.0
2014-Sep-19 23:33N 43°35' E 010°18'0 0.0
2014-Sep-19 22:33N 43°35' E 010°18'0 0.0
2014-Sep-19 21:33N 43°35' E 010°18'0 0.0
2014-Sep-19 20:33N 43°35' E 010°18'0 0.0
2014-Sep-19 19:33N 43°35' E 010°18'0 0.0
2014-Sep-19 18:33N 43°35' E 010°18'0 0.0
2014-Sep-19 17:33N 43°35' E 010°18'0 0.0
2014-Sep-19 16:33N 43°35' E 010°18'0 0.0
2014-Sep-19 15:33N 43°35' E 010°18'0 0.0
2014-Sep-19 14:33N 43°35' E 010°18'0 0.0
2014-Sep-19 13:33N 43°35' E 010°18'0 0.0
2014-Sep-19 12:33N 43°35' E 010°18'0 0.0
2014-Sep-19 11:33N 43°35' E 010°18'0 0.0
2014-Sep-19 10:33N 43°35' E 010°18'0 0.0
2014-Sep-19 09:33N 43°35' E 010°18'0 0.0
2014-Sep-19 08:33N 43°35' E 010°18'0 0.0
2014-Sep-19 07:33N 43°35' E 010°18'0 0.0
2014-Sep-19 06:33N 43°35' E 010°18'0 0.0
2014-Sep-19 05:33N 43°35' E 010°18'0 0.0
2014-Sep-19 04:33N 43°35' E 010°18'0 0.0
2014-Sep-19 03:33N 43°35' E 010°18'0 0.0
2014-Sep-19 02:33N 43°35' E 010°18'0 0.0
2014-Sep-19 01:33N 43°35' E 010°18'0 0.0
2014-Sep-19 00:33N 43°35' E 010°18'0 0.0
2014-Sep-18 23:33N 43°35' E 010°18'0 0.0
2014-Sep-18 22:33N 43°35' E 010°18'2 2.5
2014-Sep-18 21:33N 43°32' E 010°17'4 4.5
2014-Sep-18 20:34N 43°28' E 010°14'2 1.8
2014-Sep-18 19:30N 43°28' E 010°17'0 0.1
2014-Sep-18 18:33N 43°28' E 010°17'2 2.4
2014-Sep-18 17:33N 43°28' E 010°13'1313.4
2014-Sep-18 16:33N 43°18' E 010°01'1615.6
2014-Sep-18 15:33N 43°15' E 009°40'1615.5
2014-Sep-18 14:31N 43°11' E 009°18'25715.9
2014-Sep-17 22:20N 41°39' E 003°53'1114.9
2014-Sep-17 21:33N 41°35' E 003°39'1615.7
2014-Sep-17 20:30N 41°29' E 003°19'1715.0
2014-Sep-17 19:23N 41°23' E 002°58'1415.7
2014-Sep-17 18:31N 41°18' E 002°41'1615.0
2014-Sep-17 17:26N 41°12' E 002°20'1414.9
2014-Sep-17 16:28N 41°07' E 002°03'1514.8
2014-Sep-17 15:28N 41°04' E 001°43'125 4.2
2014-Sep-16 09:28N 39°36' W 000°12'6914.1
2014-Sep-16 04:33N 38°31' E 000°19'1615.5
2014-Sep-16 03:33N 38°18' E 000°07'1515.3
2014-Sep-16 02:33N 38°05' W 000°03'1515.5
2014-Sep-16 01:33N 37°52' W 000°14'1515.5
2014-Sep-16 00:33N 37°40' W 000°25'1615.6
2014-Sep-15 23:30N 37°27' W 000°39'3315.8
2014-Sep-15 21:24N 37°05' W 001°10'209 5.5
2014-Sep-14 07:33N 35°60' W 005°18'9915.9
2014-Sep-14 01:20N 36°06' W 007°20'5815.3
2014-Sep-13 21:34N 36°20' W 008°29'1514.8
2014-Sep-13 20:33N 36°23' W 008°47'1515.0
2014-Sep-13 19:33N 36°27' W 009°05'1914.8
2014-Sep-13 18:17N 36°35' W 009°26'1115.3
2014-Sep-13 17:32N 36°43' W 009°36'4414.6
2014-Sep-13 14:33N 37°25' W 009°49'1514.6
2014-Sep-13 13:33N 37°40' W 009°54'1714.6
2014-Sep-13 12:25N 37°56' W 009°58'1314.9
2014-Sep-13 11:31N 38°09' W 010°02'  
2014-Sep-10 10:33N 48°45' W 006°45'1716.9
2014-Sep-10 09:33N 49°01' W 006°35'  
Track history (hours):
 
Tides and Currents Weather Stations Pressure Air Temp Water Temp Dewpoint Dewpoint Depression Visibility Wind Speed Wind Dir Waves Ship Positions

Emerald Leader

Last reported at 2014-Sep-20 04:33 UTC. Time now 2014-Sep-21 18:09 UTC.
Position N 42°44' E 009°58'.

Length 176 m; draft 8.5 m.

Type: Cargo ship. MMSI: 308688000.

Date/timePositionNaut miles runAvg speedWind from/ knotsBaromVisibWave heightAir tempDewpointWater temp
2014-Sep-20 04:33N 42°44' E 009°58'1615.7
2014-Sep-20 03:33N 42°60' E 010°02'1616.2
2014-Sep-20 02:33N 43°15' E 010°08'1615.6
2014-Sep-20 01:34N 43°31' E 010°13'6 5.6
2014-Sep-20 00:33N 43°35' E 010°18'0 0.0
2014-Sep-19 23:33N 43°35' E 010°18'0 0.0
2014-Sep-19 22:33N 43°35' E 010°18'0 0.0
2014-Sep-19 21:33N 43°35' E 010°18'0 0.0
2014-Sep-19 20:33N 43°35' E 010°18'0 0.0
2014-Sep-19 19:33N 43°35' E 010°18'0 0.0
2014-Sep-19 18:33N 43°35' E 010°18'0 0.0
2014-Sep-19 17:33N 43°35' E 010°18'0 0.0
2014-Sep-19 16:33N 43°35' E 010°18'0 0.0
2014-Sep-19 15:33N 43°35' E 010°18'0 0.0
2014-Sep-19 14:33N 43°35' E 010°18'0 0.0
2014-Sep-19 13:33N 43°35' E 010°18'0 0.0
2014-Sep-19 12:33N 43°35' E 010°18'0 0.0
2014-Sep-19 11:33N 43°35' E 010°18'0 0.0
2014-Sep-19 10:33N 43°35' E 010°18'0 0.0
2014-Sep-19 09:33N 43°35' E 010°18'0 0.0
2014-Sep-19 08:33N 43°35' E 010°18'0 0.0
2014-Sep-19 07:33N 43°35' E 010°18'0 0.0
2014-Sep-19 06:33N 43°35' E 010°18'0 0.0
2014-Sep-19 05:33N 43°35' E 010°18'0 0.0
2014-Sep-19 04:33N 43°35' E 010°18'0 0.0
2014-Sep-19 03:33N 43°35' E 010°18'0 0.0
2014-Sep-19 02:33N 43°35' E 010°18'0 0.0
2014-Sep-19 01:33N 43°35' E 010°18'0 0.0
2014-Sep-19 00:33N 43°35' E 010°18'0 0.0
2014-Sep-18 23:33N 43°35' E 010°18'0 0.0
2014-Sep-18 22:33N 43°35' E 010°18'2 2.5
2014-Sep-18 21:33N 43°32' E 010°17'4 4.5
2014-Sep-18 20:34N 43°28' E 010°14'2 1.8
2014-Sep-18 19:30N 43°28' E 010°17'0 0.1
2014-Sep-18 18:33N 43°28' E 010°17'2 2.4
2014-Sep-18 17:33N 43°28' E 010°13'1313.4
2014-Sep-18 16:33N 43°18' E 010°01'1615.6
2014-Sep-18 15:33N 43°15' E 009°40'1615.5
2014-Sep-18 14:31N 43°11' E 009°18'25715.9
2014-Sep-17 22:20N 41°39' E 003°53'1114.9
2014-Sep-17 21:33N 41°35' E 003°39'1615.7
2014-Sep-17 20:30N 41°29' E 003°19'1715.0
2014-Sep-17 19:23N 41°23' E 002°58'1415.7
2014-Sep-17 18:31N 41°18' E 002°41'1615.0
2014-Sep-17 17:26N 41°12' E 002°20'1414.9
2014-Sep-17 16:28N 41°07' E 002°03'1514.8
2014-Sep-17 15:28N 41°04' E 001°43'125 4.2
2014-Sep-16 09:28N 39°36' W 000°12'6914.1
2014-Sep-16 04:33N 38°31' E 000°19'1615.5
2014-Sep-16 03:33N 38°18' E 000°07'1515.3
2014-Sep-16 02:33N 38°05' W 000°03'1515.5
2014-Sep-16 01:33N 37°52' W 000°14'1515.5
2014-Sep-16 00:33N 37°40' W 000°25'1615.6
2014-Sep-15 23:30N 37°27' W 000°39'3315.8
2014-Sep-15 21:24N 37°05' W 001°10'209 5.5
2014-Sep-14 07:33N 35°60' W 005°18'9915.9
2014-Sep-14 01:20N 36°06' W 007°20'5815.3
2014-Sep-13 21:34N 36°20' W 008°29'1514.8
2014-Sep-13 20:33N 36°23' W 008°47'1515.0
2014-Sep-13 19:33N 36°27' W 009°05'1914.8
2014-Sep-13 18:17N 36°35' W 009°26'1115.3
2014-Sep-13 17:32N 36°43' W 009°36'4414.6
2014-Sep-13 14:33N 37°25' W 009°49'1514.6
2014-Sep-13 13:33N 37°40' W 009°54'1714.6
2014-Sep-13 12:25N 37°56' W 009°58'1314.9
2014-Sep-13 11:31N 38°09' W 010°02'  
2014-Sep-10 10:33N 48°45' W 006°45'1716.9
2014-Sep-10 09:33N 49°01' W 006°35'  

Dump ship's entire track history